sensor_id;sensor_type;location;lat;lon;timestamp;pressure;altitude;pressure_sealevel;temperature
45034;BMP280;30771;47.988;-4.186;2023-05-07T06:00:39;98819.28;;;13.53
45034;BMP280;30771;47.988;-4.186;2023-05-07T06:03:04;98825.09;;;13.55
45034;BMP280;30771;47.988;-4.186;2023-05-07T06:05:30;98829.06;;;13.58
45034;BMP280;30771;47.988;-4.186;2023-05-07T06:07:55;98830.09;;;13.57
45034;BMP280;30771;47.988;-4.186;2023-05-07T06:10:20;98841.75;;;13.56
45034;BMP280;30771;47.988;-4.186;2023-05-07T06:12:46;98844.41;;;13.56
45034;BMP280;30771;47.988;-4.186;2023-05-07T06:15:11;98848.38;;;13.58
45034;BMP280;30771;47.988;-4.186;2023-05-07T06:17:36;98841.50;;;13.62
45034;BMP280;30771;47.988;-4.186;2023-05-07T06:20:01;98851.31;;;13.67
45034;BMP280;30771;47.988;-4.186;2023-05-07T06:22:26;98851.59;;;13.70
45034;BMP280;30771;47.988;-4.186;2023-05-07T06:24:51;98839.94;;;13.76
45034;BMP280;30771;47.988;-4.186;2023-05-07T06:27:17;98830.47;;;13.85
45034;BMP280;30771;47.988;-4.186;2023-05-07T06:29:42;98826.78;;;13.91
45034;BMP280;30771;47.988;-4.186;2023-05-07T06:32:10;98832.56;;;13.98
45034;BMP280;30771;47.988;-4.186;2023-05-07T06:34:35;98834.47;;;14.03
45034;BMP280;30771;47.988;-4.186;2023-05-07T06:37:01;98847.16;;;14.06
45034;BMP280;30771;47.988;-4.186;2023-05-07T06:39:26;98843.72;;;14.15
45034;BMP280;30771;47.988;-4.186;2023-05-07T06:41:51;98840.84;;;14.27
45034;BMP280;30771;47.988;-4.186;2023-05-07T06:44:16;98844.25;;;14.32
45034;BMP280;30771;47.988;-4.186;2023-05-07T06:46:41;98856.16;;;14.30
45034;BMP280;30771;47.988;-4.186;2023-05-07T06:49:07;98858.56;;;14.36
45034;BMP280;30771;47.988;-4.186;2023-05-07T06:51:32;98871.00;;;14.46
45034;BMP280;30771;47.988;-4.186;2023-05-07T06:53:57;98867.03;;;14.64
45034;BMP280;30771;47.988;-4.186;2023-05-07T06:56:22;98869.38;;;14.80
45034;BMP280;30771;47.988;-4.186;2023-05-07T06:58:47;98872.03;;;14.90
45034;BMP280;30771;47.988;-4.186;2023-05-07T07:01:12;98874.94;;;14.89
45034;BMP280;30771;47.988;-4.186;2023-05-07T07:03:37;98896.41;;;14.82
45034;BMP280;30771;47.988;-4.186;2023-05-07T07:06:03;98900.66;;;14.78
45034;BMP280;30771;47.988;-4.186;2023-05-07T07:08:28;98911.28;;;14.78
45034;BMP280;30771;47.988;-4.186;2023-05-07T07:10:53;98908.06;;;14.91
45034;BMP280;30771;47.988;-4.186;2023-05-07T07:13:18;98913.34;;;15.01
45034;BMP280;30771;47.988;-4.186;2023-05-07T07:15:43;98912.50;;;15.11
45034;BMP280;30771;47.988;-4.186;2023-05-07T07:18:11;98922.34;;;15.10
45034;BMP280;30771;47.988;-4.186;2023-05-07T07:20:36;98939.03;;;15.06
45034;BMP280;30771;47.988;-4.186;2023-05-07T07:23:01;98948.06;;;15.00
45034;BMP280;30771;47.988;-4.186;2023-05-07T07:25:26;98946.22;;;15.00
45034;BMP280;30771;47.988;-4.186;2023-05-07T07:27:51;98940.91;;;15.10
45034;BMP280;30771;47.988;-4.186;2023-05-07T07:30:16;98936.63;;;15.24
45034;BMP280;30771;47.988;-4.186;2023-05-07T07:32:42;98930.47;;;15.44
45034;BMP280;30771;47.988;-4.186;2023-05-07T07:35:07;98930.13;;;15.60
45034;BMP280;30771;47.988;-4.186;2023-05-07T07:37:32;98920.84;;;15.63
45034;BMP280;30771;47.988;-4.186;2023-05-07T07:39:57;98909.75;;;15.51
45034;BMP280;30771;47.988;-4.186;2023-05-07T07:42:23;98919.34;;;15.37
45034;BMP280;30771;47.988;-4.186;2023-05-07T07:44:48;98936.06;;;15.32
45034;BMP280;30771;47.988;-4.186;2023-05-07T07:47:13;98953.34;;;15.25
45034;BMP280;30771;47.988;-4.186;2023-05-07T07:49:38;98968.19;;;15.16
45034;BMP280;30771;47.988;-4.186;2023-05-07T07:52:03;98978.25;;;15.29
45034;BMP280;30771;47.988;-4.186;2023-05-07T07:54:28;98959.28;;;15.66
45034;BMP280;30771;47.988;-4.186;2023-05-07T07:56:54;98937.94;;;15.96
45034;BMP280;30771;47.988;-4.186;2023-05-07T07:59:19;98919.72;;;16.18
45034;BMP280;30771;47.988;-4.186;2023-05-07T08:01:44;98907.03;;;16.43
45034;BMP280;30771;47.988;-4.186;2023-05-07T08:04:09;98886.81;;;16.52
45034;BMP280;30771;47.988;-4.186;2023-05-07T08:06:35;98877.72;;;16.53
45034;BMP280;30771;47.988;-4.186;2023-05-07T08:09:00;98881.84;;;16.41
45034;BMP280;30771;47.988;-4.186;2023-05-07T08:11:25;98892.84;;;16.24
45034;BMP280;30771;47.988;-4.186;2023-05-07T08:13:50;98886.91;;;16.04
45034;BMP280;30771;47.988;-4.186;2023-05-07T08:16:15;98909.53;;;15.96
45034;BMP280;30771;47.988;-4.186;2023-05-07T08:18:41;98904.25;;;15.91
45034;BMP280;30771;47.988;-4.186;2023-05-07T08:21:06;98893.06;;;15.94
45034;BMP280;30771;47.988;-4.186;2023-05-07T08:23:31;98903.41;;;16.01
45034;BMP280;30771;47.988;-4.186;2023-05-07T08:25:56;98872.84;;;16.03
45034;BMP280;30771;47.988;-4.186;2023-05-07T08:28:21;98874.13;;;16.11
45034;BMP280;30771;47.988;-4.186;2023-05-07T08:30:47;98868.50;;;16.12
45034;BMP280;30771;47.988;-4.186;2023-05-07T08:33:12;98868.97;;;16.24
45034;BMP280;30771;47.988;-4.186;2023-05-07T08:35:37;98874.84;;;16.21
45034;BMP280;30771;47.988;-4.186;2023-05-07T08:38:02;98867.66;;;16.22
45034;BMP280;30771;47.988;-4.186;2023-05-07T08:40:27;98866.44;;;16.43
45034;BMP280;30771;47.988;-4.186;2023-05-07T08:42:53;98862.00;;;16.62
45034;BMP280;30771;47.988;-4.186;2023-05-07T08:45:19;98845.00;;;16.86
45034;BMP280;30771;47.988;-4.186;2023-05-07T08:47:44;98827.16;;;17.11
45034;BMP280;30771;47.988;-4.186;2023-05-07T08:50:11;98812.47;;;17.18
45034;BMP280;30771;47.988;-4.186;2023-05-07T08:52:36;98801.31;;;17.16
45034;BMP280;30771;47.988;-4.186;2023-05-07T08:55:02;98800.50;;;17.16
45034;BMP280;30771;47.988;-4.186;2023-05-07T08:57:27;98807.63;;;17.20
45034;BMP280;30771;47.988;-4.186;2023-05-07T08:59:53;98789.59;;;17.36
45034;BMP280;30771;47.988;-4.186;2023-05-07T09:02:18;98798.28;;;17.41
45034;BMP280;30771;47.988;-4.186;2023-05-07T09:04:43;98806.25;;;17.41
45034;BMP280;30771;47.988;-4.186;2023-05-07T09:07:08;98820.72;;;17.35
45034;BMP280;30771;47.988;-4.186;2023-05-07T09:09:34;98825.59;;;17.28
45034;BMP280;30771;47.988;-4.186;2023-05-07T09:11:59;98826.63;;;17.32
45034;BMP280;30771;47.988;-4.186;2023-05-07T09:14:24;98829.75;;;17.34
45034;BMP280;30771;47.988;-4.186;2023-05-07T09:16:51;98822.38;;;17.50
45034;BMP280;30771;47.988;-4.186;2023-05-07T09:19:16;98817.91;;;17.64
45034;BMP280;30771;47.988;-4.186;2023-05-07T09:21:46;98835.66;;;17.68
45034;BMP280;30771;47.988;-4.186;2023-05-07T09:24:12;98863.66;;;17.66
45034;BMP280;30771;47.988;-4.186;2023-05-07T09:26:40;98878.31;;;17.63
45034;BMP280;30771;47.988;-4.186;2023-05-07T09:29:05;98882.53;;;17.69
45034;BMP280;30771;47.988;-4.186;2023-05-07T09:31:31;98895.69;;;17.79
45034;BMP280;30771;47.988;-4.186;2023-05-07T09:33:56;98916.78;;;17.76
45034;BMP280;30771;47.988;-4.186;2023-05-07T09:36:22;98913.25;;;17.80
45034;BMP280;30771;47.988;-4.186;2023-05-07T09:38:47;98917.34;;;17.91
45034;BMP280;30771;47.988;-4.186;2023-05-07T09:41:12;98924.44;;;17.96
45034;BMP280;30771;47.988;-4.186;2023-05-07T09:43:38;98934.16;;;18.05
45034;BMP280;30771;47.988;-4.186;2023-05-07T09:46:08;98963.34;;;17.97
45034;BMP280;30771;47.988;-4.186;2023-05-07T09:48:39;98977.88;;;17.86
45034;BMP280;30771;47.988;-4.186;2023-05-07T09:53:45;98991.78;;;17.78
45034;BMP280;30771;47.988;-4.186;2023-05-07T09:56:10;98994.53;;;17.73
45034;BMP280;30771;47.988;-4.186;2023-05-07T09:58:36;99003.31;;;17.73
45034;BMP280;30771;47.988;-4.186;2023-05-07T10:01:02;98995.25;;;17.78
45034;BMP280;30771;47.988;-4.186;2023-05-07T10:03:27;99006.44;;;17.80
45034;BMP280;30771;47.988;-4.186;2023-05-07T10:05:54;98998.44;;;17.80
45034;BMP280;30771;47.988;-4.186;2023-05-07T10:08:19;99002.38;;;17.64
45034;BMP280;30771;47.988;-4.186;2023-05-07T10:10:44;98999.97;;;17.63
45034;BMP280;30771;47.988;-4.186;2023-05-07T10:13:10;99001.69;;;17.54
45034;BMP280;30771;47.988;-4.186;2023-05-07T10:15:35;99001.69;;;17.54
45034;BMP280;30771;47.988;-4.186;2023-05-07T10:18:01;99002.91;;;17.43
45034;BMP280;30771;47.988;-4.186;2023-05-07T10:20:27;99002.03;;;17.47
45034;BMP280;30771;47.988;-4.186;2023-05-07T10:22:52;98993.50;;;17.50
45034;BMP280;30771;47.988;-4.186;2023-05-07T10:25:28;98992.06;;;17.58
45034;BMP280;30771;47.988;-4.186;2023-05-07T10:27:55;98999.91;;;17.68
45034;BMP280;30771;47.988;-4.186;2023-05-07T10:31:04;99008.16;;;17.71
45034;BMP280;30771;47.988;-4.186;2023-05-07T10:33:09;99014.53;;;17.70
45034;BMP280;30771;47.988;-4.186;2023-05-07T10:35:38;99016.00;;;17.81
45034;BMP280;30771;47.988;-4.186;2023-05-07T10:38:05;99004.94;;;17.93
45034;BMP280;30771;47.988;-4.186;2023-05-07T10:40:31;99027.50;;;17.95
45034;BMP280;30771;47.988;-4.186;2023-05-07T10:42:56;99057.06;;;17.75
45034;BMP280;30771;47.988;-4.186;2023-05-07T10:45:22;99068.91;;;17.64
45034;BMP280;30771;47.988;-4.186;2023-05-07T10:50:31;99058.97;;;17.75
45034;BMP280;30771;47.988;-4.186;2023-05-07T10:53:32;99065.56;;;17.77
45034;BMP280;30771;47.988;-4.186;2023-05-07T10:58:44;99057.56;;;18.01
45034;BMP280;30771;47.988;-4.186;2023-05-07T11:01:09;99090.25;;;18.06
45034;BMP280;30771;47.988;-4.186;2023-05-07T11:03:35;99120.94;;;18.04
45034;BMP280;30771;47.988;-4.186;2023-05-07T11:06:13;99139.16;;;17.92
45034;BMP280;30771;47.988;-4.186;2023-05-07T11:11:17;99147.03;;;17.78
45034;BMP280;30771;47.988;-4.186;2023-05-07T11:13:44;99138.94;;;17.65
45034;BMP280;30771;47.988;-4.186;2023-05-07T11:16:20;99120.00;;;17.66
45034;BMP280;30771;47.988;-4.186;2023-05-07T11:18:51;99116.06;;;17.82
45034;BMP280;30771;47.988;-4.186;2023-05-07T11:24:01;99135.16;;;17.94
45034;BMP280;30771;47.988;-4.186;2023-05-07T11:26:28;99158.38;;;17.89
45034;BMP280;30771;47.988;-4.186;2023-05-07T11:28:54;99166.84;;;17.91
45034;BMP280;30771;47.988;-4.186;2023-05-07T11:31:24;99178.53;;;17.95
45034;BMP280;30771;47.988;-4.186;2023-05-07T11:33:50;99184.78;;;17.85
45034;BMP280;30771;47.988;-4.186;2023-05-07T11:36:16;99189.63;;;17.78
45034;BMP280;30771;47.988;-4.186;2023-05-07T11:38:41;99167.88;;;17.95
45034;BMP280;30771;47.988;-4.186;2023-05-07T11:41:07;99172.78;;;18.11
45034;BMP280;30771;47.988;-4.186;2023-05-07T11:43:33;99169.59;;;18.09
45034;BMP280;30771;47.988;-4.186;2023-05-07T11:46:07;99199.09;;;18.18
45034;BMP280;30771;47.988;-4.186;2023-05-07T11:48:32;99252.41;;;18.13
45034;BMP280;30771;47.988;-4.186;2023-05-07T11:53:27;99259.00;;;18.20
45034;BMP280;30771;47.988;-4.186;2023-05-07T11:55:54;99234.97;;;18.25
45034;BMP280;30771;47.988;-4.186;2023-05-07T11:58:22;99227.34;;;18.38
45034;BMP280;30771;47.988;-4.186;2023-05-07T12:00:51;99207.66;;;18.57
45034;BMP280;30771;47.988;-4.186;2023-05-07T12:03:16;99240.09;;;18.64
45034;BMP280;30771;47.988;-4.186;2023-05-07T12:05:42;99281.88;;;18.50
45034;BMP280;30771;47.988;-4.186;2023-05-07T12:08:07;99269.88;;;18.48
45034;BMP280;30771;47.988;-4.186;2023-05-07T12:10:33;99304.91;;;18.41
45034;BMP280;30771;47.988;-4.186;2023-05-07T12:12:58;99299.63;;;18.36
45034;BMP280;30771;47.988;-4.186;2023-05-07T12:15:23;99292.91;;;18.39
45034;BMP280;30771;47.988;-4.186;2023-05-07T12:17:49;99296.25;;;18.49
45034;BMP280;30771;47.988;-4.186;2023-05-07T12:20:14;99302.41;;;18.50
45034;BMP280;30771;47.988;-4.186;2023-05-07T12:22:40;99331.47;;;18.46
45034;BMP280;30771;47.988;-4.186;2023-05-07T12:25:06;99330.28;;;18.33
45034;BMP280;30771;47.988;-4.186;2023-05-07T12:27:31;99293.28;;;18.27
45034;BMP280;30771;47.988;-4.186;2023-05-07T12:29:57;99270.84;;;18.33
45034;BMP280;30771;47.988;-4.186;2023-05-07T12:32:23;99230.28;;;18.41
45034;BMP280;30771;47.988;-4.186;2023-05-07T12:34:51;99241.13;;;18.45
45034;BMP280;30771;47.988;-4.186;2023-05-07T12:37:23;99241.19;;;18.40
45034;BMP280;30771;47.988;-4.186;2023-05-07T12:39:49;99262.25;;;18.41
45034;BMP280;30771;47.988;-4.186;2023-05-07T12:42:16;99296.44;;;18.29
45034;BMP280;30771;47.988;-4.186;2023-05-07T12:44:41;99301.09;;;18.23
45034;BMP280;30771;47.988;-4.186;2023-05-07T12:47:10;99285.13;;;18.18
45034;BMP280;30771;47.988;-4.186;2023-05-07T12:49:35;99284.66;;;18.11
45034;BMP280;30771;47.988;-4.186;2023-05-07T12:52:00;99282.94;;;17.97
45034;BMP280;30771;47.988;-4.186;2023-05-07T12:54:30;99270.19;;;17.94
45034;BMP280;30771;47.988;-4.186;2023-05-07T12:57:04;99237.91;;;17.95
45034;BMP280;30771;47.988;-4.186;2023-05-07T12:59:36;99237.91;;;17.95
45034;BMP280;30771;47.988;-4.186;2023-05-07T13:02:02;99243.84;;;17.87
45034;BMP280;30771;47.988;-4.186;2023-05-07T13:04:27;99240.00;;;17.75
45034;BMP280;30771;47.988;-4.186;2023-05-07T13:06:53;99226.53;;;17.61
45034;BMP280;30771;47.988;-4.186;2023-05-07T13:09:18;99201.63;;;17.47
45034;BMP280;30771;47.988;-4.186;2023-05-07T13:11:43;99186.72;;;17.46
45034;BMP280;30771;47.988;-4.186;2023-05-07T13:14:09;99179.19;;;17.53
45034;BMP280;30771;47.988;-4.186;2023-05-07T13:16:34;99177.28;;;17.59
45034;BMP280;30771;47.988;-4.186;2023-05-07T13:18:59;99189.78;;;17.58
45034;BMP280;30771;47.988;-4.186;2023-05-07T13:21:24;99201.25;;;17.59
45034;BMP280;30771;47.988;-4.186;2023-05-07T13:23:50;99207.00;;;17.71
45034;BMP280;30771;47.988;-4.186;2023-05-07T13:26:15;99221.56;;;17.78
45034;BMP280;30771;47.988;-4.186;2023-05-07T13:28:40;99241.75;;;17.89
45034;BMP280;30771;47.988;-4.186;2023-05-07T13:31:06;99256.47;;;18.05
45034;BMP280;30771;47.988;-4.186;2023-05-07T13:33:31;99280.09;;;18.12
45034;BMP280;30771;47.988;-4.186;2023-05-07T13:35:57;99293.53;;;18.30
45034;BMP280;30771;47.988;-4.186;2023-05-07T13:38:22;99323.84;;;18.34
45034;BMP280;30771;47.988;-4.186;2023-05-07T13:40:48;99356.41;;;18.31
45034;BMP280;30771;47.988;-4.186;2023-05-07T13:43:13;99351.63;;;18.28
45034;BMP280;30771;47.988;-4.186;2023-05-07T13:45:38;99362.41;;;18.18
45034;BMP280;30771;47.988;-4.186;2023-05-07T13:48:04;99351.28;;;18.11
45034;BMP280;30771;47.988;-4.186;2023-05-07T13:50:29;99332.66;;;18.06
45034;BMP280;30771;47.988;-4.186;2023-05-07T13:52:54;99319.34;;;18.06
45034;BMP280;30771;47.988;-4.186;2023-05-07T13:55:21;99317.97;;;18.14
45034;BMP280;30771;47.988;-4.186;2023-05-07T13:57:47;99293.09;;;18.23
45034;BMP280;30771;47.988;-4.186;2023-05-07T14:00:13;99279.16;;;18.55
45034;BMP280;30771;47.988;-4.186;2023-05-07T14:02:39;99265.75;;;18.79
45034;BMP280;30771;47.988;-4.186;2023-05-07T14:05:04;99272.53;;;18.95
45034;BMP280;30771;47.988;-4.186;2023-05-07T14:07:30;99247.91;;;18.98
45034;BMP280;30771;47.988;-4.186;2023-05-07T14:09:56;99237.78;;;19.00
45034;BMP280;30771;47.988;-4.186;2023-05-07T14:12:22;99228.06;;;18.85
45034;BMP280;30771;47.988;-4.186;2023-05-07T14:14:47;99213.84;;;18.95
45034;BMP280;30771;47.988;-4.186;2023-05-07T14:17:12;99204.34;;;19.02
45034;BMP280;30771;47.988;-4.186;2023-05-07T14:19:38;99200.69;;;19.17
45034;BMP280;30771;47.988;-4.186;2023-05-07T14:22:03;99212.22;;;19.31
45034;BMP280;30771;47.988;-4.186;2023-05-07T14:24:28;99206.00;;;19.35
45034;BMP280;30771;47.988;-4.186;2023-05-07T14:26:54;99221.63;;;19.42
45034;BMP280;30771;47.988;-4.186;2023-05-07T14:29:19;99246.09;;;19.30
45034;BMP280;30771;47.988;-4.186;2023-05-07T14:31:45;99235.88;;;19.19
45034;BMP280;30771;47.988;-4.186;2023-05-07T14:34:10;99240.97;;;19.15
45034;BMP280;30771;47.988;-4.186;2023-05-07T14:36:36;99246.72;;;19.09
45034;BMP280;30771;47.988;-4.186;2023-05-07T14:39:01;99236.59;;;19.06
45034;BMP280;30771;47.988;-4.186;2023-05-07T14:41:29;99231.50;;;19.09
45034;BMP280;30771;47.988;-4.186;2023-05-07T14:43:54;99236.03;;;19.09
45034;BMP280;30771;47.988;-4.186;2023-05-07T14:46:20;99244.16;;;19.17
45034;BMP280;30771;47.988;-4.186;2023-05-07T14:48:45;99237.91;;;19.08
45034;BMP280;30771;47.988;-4.186;2023-05-07T14:51:11;99216.56;;;19.08
45034;BMP280;30771;47.988;-4.186;2023-05-07T14:53:37;99193.81;;;19.11
45034;BMP280;30771;47.988;-4.186;2023-05-07T14:56:02;99205.94;;;19.22
45034;BMP280;30771;47.988;-4.186;2023-05-07T14:58:28;99221.56;;;19.10
45034;BMP280;30771;47.988;-4.186;2023-05-07T15:00:53;99207.81;;;19.03
45034;BMP280;30771;47.988;-4.186;2023-05-07T15:03:18;99260.13;;;19.04
45034;BMP280;30771;47.988;-4.186;2023-05-07T15:05:44;99298.03;;;19.19
45034;BMP280;30771;47.988;-4.186;2023-05-07T15:08:09;99313.13;;;19.29
45034;BMP280;30771;47.988;-4.186;2023-05-07T15:10:36;99318.03;;;19.40
45034;BMP280;30771;47.988;-4.186;2023-05-07T15:13:01;99293.56;;;19.33
45034;BMP280;30771;47.988;-4.186;2023-05-07T15:15:27;99293.44;;;19.43
45034;BMP280;30771;47.988;-4.186;2023-05-07T15:17:52;99271.91;;;19.35
45034;BMP280;30771;47.988;-4.186;2023-05-07T15:20:17;99262.13;;;19.30
45034;BMP280;30771;47.988;-4.186;2023-05-07T15:22:42;99270.50;;;19.24
45034;BMP280;30771;47.988;-4.186;2023-05-07T15:25:08;99254.72;;;19.09
45034;BMP280;30771;47.988;-4.186;2023-05-07T15:27:33;99220.81;;;18.91
45034;BMP280;30771;47.988;-4.186;2023-05-07T15:29:59;99207.41;;;18.77
45034;BMP280;30771;47.988;-4.186;2023-05-07T15:32:24;99212.28;;;18.70
45034;BMP280;30771;47.988;-4.186;2023-05-07T15:34:49;99211.63;;;18.60
45034;BMP280;30771;47.988;-4.186;2023-05-07T15:37:14;99171.25;;;18.48
45034;BMP280;30771;47.988;-4.186;2023-05-07T15:39:40;99196.06;;;18.67
45034;BMP280;30771;47.988;-4.186;2023-05-07T15:42:05;99179.47;;;18.51
45034;BMP280;30771;47.988;-4.186;2023-05-07T15:44:30;99183.06;;;18.42
45034;BMP280;30771;47.988;-4.186;2023-05-07T15:46:56;99157.94;;;18.24
45034;BMP280;30771;47.988;-4.186;2023-05-07T15:49:21;99166.09;;;18.14
45034;BMP280;30771;47.988;-4.186;2023-05-07T15:51:46;99176.75;;;18.14
45034;BMP280;30771;47.988;-4.186;2023-05-07T15:54:15;99168.28;;;18.07
45034;BMP280;30771;47.988;-4.186;2023-05-07T15:56:40;99145.97;;;18.03
45034;BMP280;30771;47.988;-4.186;2023-05-07T15:59:05;99165.47;;;17.98
45034;BMP280;30771;47.988;-4.186;2023-05-07T16:01:31;99160.00;;;17.85
45034;BMP280;30771;47.988;-4.186;2023-05-07T16:03:56;99147.31;;;17.77
45034;BMP280;30771;47.988;-4.186;2023-05-07T16:06:21;99135.41;;;17.69
45034;BMP280;30771;47.988;-4.186;2023-05-07T16:08:47;99142.09;;;17.67
45034;BMP280;30771;47.988;-4.186;2023-05-07T16:11:12;99129.16;;;17.55
45034;BMP280;30771;47.988;-4.186;2023-05-07T16:13:37;99139.59;;;17.52
45034;BMP280;30771;47.988;-4.186;2023-05-07T16:16:03;99132.59;;;17.56
45034;BMP280;30771;47.988;-4.186;2023-05-07T16:18:29;99116.13;;;17.54
45034;BMP280;30771;47.988;-4.186;2023-05-07T16:20:54;99110.88;;;17.44
45034;BMP280;30771;47.988;-4.186;2023-05-07T16:23:19;99117.72;;;17.55
45034;BMP280;30771;47.988;-4.186;2023-05-07T16:25:45;99120.91;;;17.57
45034;BMP280;30771;47.988;-4.186;2023-05-07T16:28:10;99116.78;;;17.69
45034;BMP280;30771;47.988;-4.186;2023-05-07T16:30:36;99114.59;;;17.76
45034;BMP280;30771;47.988;-4.186;2023-05-07T16:33:01;99108.41;;;17.81
45034;BMP280;30771;47.988;-4.186;2023-05-07T16:35:27;99103.47;;;17.93
45034;BMP280;30771;47.988;-4.186;2023-05-07T16:37:52;99097.88;;;17.94
45034;BMP280;30771;47.988;-4.186;2023-05-07T16:40:17;99095.63;;;18.01
45034;BMP280;30771;47.988;-4.186;2023-05-07T16:42:43;99108.91;;;18.06
45034;BMP280;30771;47.988;-4.186;2023-05-07T16:45:08;99115.84;;;18.02
45034;BMP280;30771;47.988;-4.186;2023-05-07T16:47:34;99122.78;;;18.03
45034;BMP280;30771;47.988;-4.186;2023-05-07T16:49:59;99119.72;;;17.91
45034;BMP280;30771;47.988;-4.186;2023-05-07T16:52:25;99128.78;;;17.90
45034;BMP280;30771;47.988;-4.186;2023-05-07T16:54:51;99127.22;;;17.89
45034;BMP280;30771;47.988;-4.186;2023-05-07T16:57:16;99125.66;;;17.83
45034;BMP280;30771;47.988;-4.186;2023-05-07T16:59:43;99111.41;;;17.74
45034;BMP280;30771;47.988;-4.186;2023-05-07T17:02:08;99127.53;;;17.83
45034;BMP280;30771;47.988;-4.186;2023-05-07T17:04:34;99131.47;;;17.90
45034;BMP280;30771;47.988;-4.186;2023-05-07T17:06:59;99126.75;;;18.06
45034;BMP280;30771;47.988;-4.186;2023-05-07T17:09:24;99145.84;;;18.13
45034;BMP280;30771;47.988;-4.186;2023-05-07T17:11:50;99153.09;;;18.07
45034;BMP280;30771;47.988;-4.186;2023-05-07T17:14:15;99154.75;;;18.03
45034;BMP280;30771;47.988;-4.186;2023-05-07T17:16:40;99155.03;;;18.02
45034;BMP280;30771;47.988;-4.186;2023-05-07T17:19:06;99149.38;;;18.08
45034;BMP280;30771;47.988;-4.186;2023-05-07T17:21:31;99146.53;;;18.23
45034;BMP280;30771;47.988;-4.186;2023-05-07T17:23:56;99141.63;;;18.30
45034;BMP280;30771;47.988;-4.186;2023-05-07T17:26:22;99133.81;;;18.58
45034;BMP280;30771;47.988;-4.186;2023-05-07T17:28:47;99124.00;;;18.72
45034;BMP280;30771;47.988;-4.186;2023-05-07T17:31:12;99135.72;;;18.71
45034;BMP280;30771;47.988;-4.186;2023-05-07T17:33:37;99150.38;;;18.73
45034;BMP280;30771;47.988;-4.186;2023-05-07T17:36:03;99162.34;;;18.76
45034;BMP280;30771;47.988;-4.186;2023-05-07T17:38:29;99176.47;;;18.76
45034;BMP280;30771;47.988;-4.186;2023-05-07T17:40:54;99184.13;;;18.64
45034;BMP280;30771;47.988;-4.186;2023-05-07T17:43:20;99203.06;;;18.39
45034;BMP280;30771;47.988;-4.186;2023-05-07T17:45:45;99219.06;;;18.15
45034;BMP280;30771;47.988;-4.186;2023-05-07T17:48:10;99215.78;;;18.00
45034;BMP280;30771;47.988;-4.186;2023-05-07T17:50:36;99215.09;;;17.89
45034;BMP280;30771;47.988;-4.186;2023-05-07T17:53:01;99195.00;;;17.73
45034;BMP280;30771;47.988;-4.186;2023-05-07T17:55:27;99199.25;;;17.74
45034;BMP280;30771;47.988;-4.186;2023-05-07T17:57:52;99209.16;;;17.69
45034;BMP280;30771;47.988;-4.186;2023-05-07T18:00:17;99190.72;;;17.77
45034;BMP280;30771;47.988;-4.186;2023-05-07T18:02:43;99200.75;;;17.85
45034;BMP280;30771;47.988;-4.186;2023-05-07T18:05:08;99206.59;;;17.82
45034;BMP280;30771;47.988;-4.186;2023-05-07T18:07:34;99215.00;;;17.71
45034;BMP280;30771;47.988;-4.186;2023-05-07T18:09:59;99221.41;;;17.70
45034;BMP280;30771;47.988;-4.186;2023-05-07T18:12:24;99206.78;;;17.67
45034;BMP280;30771;47.988;-4.186;2023-05-07T18:14:50;99202.97;;;17.73
45034;BMP280;30771;47.988;-4.186;2023-05-07T18:17:15;99210.19;;;17.68
45034;BMP280;30771;47.988;-4.186;2023-05-07T18:19:41;99203.03;;;17.68
45034;BMP280;30771;47.988;-4.186;2023-05-07T18:22:06;99198.03;;;17.90
45034;BMP280;30771;47.988;-4.186;2023-05-07T18:24:32;99197.31;;;18.08
45034;BMP280;30771;47.988;-4.186;2023-05-07T18:26:57;99162.19;;;18.86
45034;BMP280;30771;47.988;-4.186;2023-05-07T18:29:22;99162.38;;;19.99
45034;BMP280;30771;47.988;-4.186;2023-05-07T18:31:47;99222.84;;;20.85
45034;BMP280;30771;47.988;-4.186;2023-05-07T18:34:13;99334.06;;;21.13
45034;BMP280;30771;47.988;-4.186;2023-05-07T18:36:38;99396.59;;;21.30
45034;BMP280;30771;47.988;-4.186;2023-05-07T18:39:03;99437.28;;;21.19
45034;BMP280;30771;47.988;-4.186;2023-05-07T18:41:28;99439.06;;;21.23
45034;BMP280;30771;47.988;-4.186;2023-05-07T18:43:54;99448.50;;;20.94
45034;BMP280;30771;47.988;-4.186;2023-05-07T18:46:19;99451.47;;;20.33
45034;BMP280;30771;47.988;-4.186;2023-05-07T18:48:44;99418.41;;;19.78
45034;BMP280;30771;47.988;-4.186;2023-05-07T18:51:10;99379.97;;;19.19
45034;BMP280;30771;47.988;-4.186;2023-05-07T18:53:35;99342.63;;;18.77
45034;BMP280;30771;47.988;-4.186;2023-05-07T18:56:00;99324.72;;;18.30
45034;BMP280;30771;47.988;-4.186;2023-05-07T18:58:25;99302.91;;;17.99
45034;BMP280;30771;47.988;-4.186;2023-05-07T19:00:51;99296.41;;;17.77
45034;BMP280;30771;47.988;-4.186;2023-05-07T19:03:16;99297.44;;;17.47
45034;BMP280;30771;47.988;-4.186;2023-05-07T19:05:42;99301.25;;;17.26
45034;BMP280;30771;47.988;-4.186;2023-05-07T19:08:08;99301.59;;;17.10
45034;BMP280;30771;47.988;-4.186;2023-05-07T19:10:33;99296.38;;;16.89
45034;BMP280;30771;47.988;-4.186;2023-05-07T19:12:59;99294.09;;;16.68
45034;BMP280;30771;47.988;-4.186;2023-05-07T19:15:24;99314.81;;;16.66
45034;BMP280;30771;47.988;-4.186;2023-05-07T19:17:49;99305.28;;;16.55
45034;BMP280;30771;47.988;-4.186;2023-05-07T19:20:15;99302.41;;;16.36
45034;BMP280;30771;47.988;-4.186;2023-05-07T19:22:40;99316.19;;;16.28
45034;BMP280;30771;47.988;-4.186;2023-05-07T19:25:06;99318.06;;;16.13
45034;BMP280;30771;47.988;-4.186;2023-05-07T19:27:31;99339.06;;;15.99
45034;BMP280;30771;47.988;-4.186;2023-05-07T19:29:56;99343.00;;;15.87
45034;BMP280;30771;47.988;-4.186;2023-05-07T19:32:22;99350.69;;;15.68
45034;BMP280;30771;47.988;-4.186;2023-05-07T19:34:47;99370.06;;;15.64
45034;BMP280;30771;47.988;-4.186;2023-05-07T19:37:12;99390.44;;;15.53
45034;BMP280;30771;47.988;-4.186;2023-05-07T19:39:38;99411.59;;;15.38
45034;BMP280;30771;47.988;-4.186;2023-05-07T19:42:03;99416.03;;;15.22
45034;BMP280;30771;47.988;-4.186;2023-05-07T19:44:29;99438.00;;;15.13
45034;BMP280;30771;47.988;-4.186;2023-05-07T19:46:54;99449.06;;;15.05
45034;BMP280;30771;47.988;-4.186;2023-05-07T19:49:19;99465.19;;;14.98
45034;BMP280;30771;47.988;-4.186;2023-05-07T19:51:45;99472.81;;;14.90
45034;BMP280;30771;47.988;-4.186;2023-05-07T19:54:10;99477.00;;;14.81
45034;BMP280;30771;47.988;-4.186;2023-05-07T19:56:36;99490.38;;;14.69
45034;BMP280;30771;47.988;-4.186;2023-05-07T19:59:01;99508.41;;;14.67
45034;BMP280;30771;47.988;-4.186;2023-05-07T20:01:26;99518.69;;;14.64
45034;BMP280;30771;47.988;-4.186;2023-05-07T20:03:54;99524.72;;;14.54